sensor_id;sensor_type;location;lat;lon;timestamp;pressure;altitude;pressure_sealevel;temperature;humidity
53758;BME280;39674;59.860;30.672;2023-05-09T00:06:03;102431.69;;;1.69;72.40
53758;BME280;39674;59.860;30.672;2023-05-09T00:12:13;102526.03;;;2.13;71.96
53758;BME280;39674;59.860;30.672;2023-05-09T00:15:13;102585.63;;;2.51;71.70
53758;BME280;39674;59.860;30.672;2023-05-09T00:18:32;102444.66;;;1.66;71.82
53758;BME280;39674;59.860;30.672;2023-05-09T00:21:26;102451.69;;;1.73;71.14
53758;BME280;39674;59.860;30.672;2023-05-09T00:24:39;102542.81;;;2.33;70.33
53758;BME280;39674;59.860;30.672;2023-05-09T00:27:21;102585.69;;;2.59;71.21
53758;BME280;39674;59.860;30.672;2023-05-09T00:30:12;102432.41;;;1.60;70.05
53758;BME280;39674;59.860;30.672;2023-05-09T00:32:48;102462.88;;;1.66;71.66
53758;BME280;39674;59.860;30.672;2023-05-09T00:35:28;102588.00;;;2.35;71.27
53758;BME280;39674;59.860;30.672;2023-05-09T00:38:02;102484.59;;;1.67;72.05
53758;BME280;39674;59.860;30.672;2023-05-09T00:40:46;102528.28;;;1.86;70.64
53758;BME280;39674;59.860;30.672;2023-05-09T00:43:25;102526.47;;;1.79;73.76
53758;BME280;39674;59.860;30.672;2023-05-09T00:46:05;102579.69;;;1.98;74.57
53758;BME280;39674;59.860;30.672;2023-05-09T00:48:45;102454.38;;;1.17;74.39
53758;BME280;39674;59.860;30.672;2023-05-09T00:51:33;102527.91;;;1.58;73.45
53758;BME280;39674;59.860;30.672;2023-05-09T00:54:28;102573.31;;;1.76;75.40
53758;BME280;39674;59.860;30.672;2023-05-09T00:57:23;102585.47;;;1.75;74.17
53758;BME280;39674;59.860;30.672;2023-05-09T01:00:15;102524.97;;;1.38;74.66
53758;BME280;39674;59.860;30.672;2023-05-09T01:03:19;102537.22;;;1.46;75.94
53758;BME280;39674;59.860;30.672;2023-05-09T01:06:23;102442.50;;;0.80;74.61
53758;BME280;39674;59.860;30.672;2023-05-09T01:10:10;102509.91;;;1.19;74.02
53758;BME280;39674;59.860;30.672;2023-05-09T01:12:54;102443.38;;;0.81;75.32
53758;BME280;39674;59.860;30.672;2023-05-09T01:15:50;102438.03;;;0.73;77.03
53758;BME280;39674;59.860;30.672;2023-05-09T01:18:54;102580.84;;;1.59;76.05
53758;BME280;39674;59.860;30.672;2023-05-09T01:22:21;102494.16;;;1.11;76.03
53758;BME280;39674;59.860;30.672;2023-05-09T01:31:57;102523.81;;;1.21;76.63
53758;BME280;39674;59.860;30.672;2023-05-09T01:34:46;102428.25;;;0.58;75.45
53758;BME280;39674;59.860;30.672;2023-05-09T01:43:20;102574.41;;;1.35;76.55
53758;BME280;39674;59.860;30.672;2023-05-09T01:44:07;102585.59;;;1.31;76.48
53758;BME280;39674;59.860;30.672;2023-05-09T01:47:20;102544.56;;;1.16;76.09
53758;BME280;39674;59.860;30.672;2023-05-09T01:50:06;102523.53;;;1.02;79.46
53758;BME280;39674;59.860;30.672;2023-05-09T01:53:14;102441.97;;;0.50;77.86
53758;BME280;39674;59.860;30.672;2023-05-09T01:55:56;102454.22;;;0.55;80.35
53758;BME280;39674;59.860;30.672;2023-05-09T01:58:35;102436.66;;;0.43;80.38
53758;BME280;39674;59.860;30.672;2023-05-09T02:02:02;102532.28;;;1.09;79.37
53758;BME280;39674;59.860;30.672;2023-05-09T02:04:42;102487.63;;;0.83;78.79
53758;BME280;39674;59.860;30.672;2023-05-09T02:07:25;102568.34;;;1.36;78.71
53758;BME280;39674;59.860;30.672;2023-05-09T02:10:40;102527.19;;;1.15;79.26
53758;BME280;39674;59.860;30.672;2023-05-09T02:13:25;102427.31;;;0.56;76.71
53758;BME280;39674;59.860;30.672;2023-05-09T02:16:12;102508.84;;;1.07;78.45
53758;BME280;39674;59.860;30.672;2023-05-09T02:18:47;102443.81;;;0.57;78.89
53758;BME280;39674;59.860;30.672;2023-05-09T02:21:20;102516.63;;;1.04;78.17
53758;BME280;39674;59.860;30.672;2023-05-09T02:23:53;102488.69;;;0.95;80.46
53758;BME280;39674;59.860;30.672;2023-05-09T02:26:27;102576.38;;;1.50;79.91
53758;BME280;39674;59.860;30.672;2023-05-09T02:29:01;102431.69;;;0.59;78.29
53758;BME280;39674;59.860;30.672;2023-05-09T02:31:44;102526.44;;;1.21;79.37
53758;BME280;39674;59.860;30.672;2023-05-09T02:34:17;102424.06;;;0.67;78.65
53758;BME280;39674;59.860;30.672;2023-05-09T02:37:16;102528.38;;;1.34;77.75
53758;BME280;39674;59.860;30.672;2023-05-09T02:40:21;102521.38;;;1.30;77.32
53758;BME280;39674;59.860;30.672;2023-05-09T02:43:23;102566.13;;;1.59;77.77
53758;BME280;39674;59.860;30.672;2023-05-09T02:45:56;102507.50;;;1.31;77.88
53758;BME280;39674;59.860;30.672;2023-05-09T02:48:43;102530.44;;;1.54;76.85
53758;BME280;39674;59.860;30.672;2023-05-09T02:51:22;102482.53;;;1.42;76.52
53758;BME280;39674;59.860;30.672;2023-05-09T02:54:22;102476.56;;;1.50;76.27
53758;BME280;39674;59.860;30.672;2023-05-09T02:57:08;102529.25;;;1.93;74.74
53758;BME280;39674;59.860;30.672;2023-05-09T02:59:44;102496.19;;;1.89;73.36
53758;BME280;39674;59.860;30.672;2023-05-09T03:02:21;102526.13;;;2.19;73.59
53758;BME280;39674;59.860;30.672;2023-05-09T03:05:01;102499.22;;;2.23;71.01
53758;BME280;39674;59.860;30.672;2023-05-09T03:07:36;102474.03;;;2.25;69.58
53758;BME280;39674;59.860;30.672;2023-05-09T03:10:25;102538.06;;;2.75;69.01
53758;BME280;39674;59.860;30.672;2023-05-09T03:13:21;102586.34;;;3.19;68.49
53758;BME280;39674;59.860;30.672;2023-05-09T03:19:44;102586.56;;;3.44;66.56
53758;BME280;39674;59.860;30.672;2023-05-09T03:22:39;102443.16;;;2.68;66.84
53758;BME280;39674;59.860;30.672;2023-05-09T03:25:46;102554.38;;;3.49;66.97
53758;BME280;39674;59.860;30.672;2023-05-09T03:28:51;102571.16;;;3.78;66.04
53758;BME280;39674;59.860;30.672;2023-05-09T03:31:39;102426.00;;;2.95;65.57
53758;BME280;39674;59.860;30.672;2023-05-09T03:34:21;102443.56;;;3.12;65.32
53758;BME280;39674;59.860;30.672;2023-05-09T03:37:05;102513.53;;;3.65;64.17
53758;BME280;39674;59.860;30.672;2023-05-09T03:43:00;102440.25;;;3.41;64.17
53758;BME280;39674;59.860;30.672;2023-05-09T03:46:32;102444.69;;;3.52;63.12
53758;BME280;39674;59.860;30.672;2023-05-09T03:49:35;102528.63;;;4.13;63.41
53758;BME280;39674;59.860;30.672;2023-05-09T03:52:44;102436.91;;;3.65;63.06
53758;BME280;39674;59.860;30.672;2023-05-09T03:56:54;102438.75;;;3.83;62.54
53758;BME280;39674;59.860;30.672;2023-05-09T04:02:07;102578.59;;;4.96;61.97
53758;BME280;39674;59.860;30.672;2023-05-09T04:04:50;102477.31;;;4.49;61.19
53758;BME280;39674;59.860;30.672;2023-05-09T04:11:42;102449.41;;;4.66;58.92
53758;BME280;39674;59.860;30.672;2023-05-09T04:14:42;102501.81;;;5.07;58.63
53758;BME280;39674;59.860;30.672;2023-05-09T04:18:03;102450.28;;;5.03;58.32
53758;BME280;39674;59.860;30.672;2023-05-09T04:21:18;102521.84;;;5.71;57.89
53758;BME280;39674;59.860;30.672;2023-05-09T04:24:16;102588.22;;;6.18;56.74
53758;BME280;39674;59.860;30.672;2023-05-09T04:27:55;102461.59;;;5.60;56.39
53758;BME280;39674;59.860;30.672;2023-05-09T04:31:10;102478.94;;;5.91;56.08
53758;BME280;39674;59.860;30.672;2023-05-09T04:33:53;102461.44;;;5.98;55.09
53758;BME280;39674;59.860;30.672;2023-05-09T04:36:30;102545.16;;;6.63;55.15
53758;BME280;39674;59.860;30.672;2023-05-09T04:39:29;102549.34;;;6.90;55.79
53758;BME280;39674;59.860;30.672;2023-05-09T04:42:12;102456.81;;;6.54;54.54
53758;BME280;39674;59.860;30.672;2023-05-09T04:44:45;102512.44;;;7.07;53.62
53758;BME280;39674;59.860;30.672;2023-05-09T04:51:09;102514.69;;;7.53;52.66
53758;BME280;39674;59.860;30.672;2023-05-09T04:53:53;102542.38;;;7.89;51.08
53758;BME280;39674;59.860;30.672;2023-05-09T04:56:37;102456.81;;;7.57;51.03
53758;BME280;39674;59.860;30.672;2023-05-09T05:02:20;102538.22;;;8.42;48.08
53758;BME280;39674;59.860;30.672;2023-05-09T05:07:18;102532.78;;;8.58;48.32
53758;BME280;39674;59.860;30.672;2023-05-09T05:08:22;102525.47;;;8.78;47.26
53758;BME280;39674;59.860;30.672;2023-05-09T05:10:54;102469.16;;;8.86;47.39
53758;BME280;39674;59.860;30.672;2023-05-09T05:13:36;102466.84;;;9.19;46.62
53758;BME280;39674;59.860;30.672;2023-05-09T05:17:11;102542.56;;;10.07;46.70
53758;BME280;39674;59.860;30.672;2023-05-09T05:20:08;102471.59;;;9.93;45.54
53758;BME280;39674;59.860;30.672;2023-05-09T05:23:35;102483.38;;;10.19;43.31
53758;BME280;39674;59.860;30.672;2023-05-09T05:26:34;102473.53;;;10.26;44.12
53758;BME280;39674;59.860;30.672;2023-05-09T05:29:26;102552.25;;;10.90;41.89
53758;BME280;39674;59.860;30.672;2023-05-09T05:31:55;102559.84;;;11.05;41.93
53758;BME280;39674;59.860;30.672;2023-05-09T05:34:27;102513.38;;;10.95;40.42
53758;BME280;39674;59.860;30.672;2023-05-09T05:37:00;102542.81;;;11.17;38.37
53758;BME280;39674;59.860;30.672;2023-05-09T05:39:45;102480.81;;;10.93;40.11
53758;BME280;39674;59.860;30.672;2023-05-09T05:42:34;102472.28;;;10.82;39.55
53758;BME280;39674;59.860;30.672;2023-05-09T05:45:17;102532.91;;;11.59;39.77
53758;BME280;39674;59.860;30.672;2023-05-09T05:48:10;102482.97;;;11.48;39.21
53758;BME280;39674;59.860;30.672;2023-05-09T05:53:00;102471.41;;;11.50;39.50
53758;BME280;39674;59.860;30.672;2023-05-09T05:54:36;102530.84;;;12.04;38.75
53758;BME280;39674;59.860;30.672;2023-05-09T05:57:17;102582.09;;;12.63;36.60
53758;BME280;39674;59.860;30.672;2023-05-09T06:02:34;102543.97;;;12.67;37.56
53758;BME280;39674;59.860;30.672;2023-05-09T06:03:49;102498.81;;;12.71;35.67
53758;BME280;39674;59.860;30.672;2023-05-09T06:06:56;102540.25;;;13.02;35.16
53758;BME280;39674;59.860;30.672;2023-05-09T06:10:00;102542.03;;;13.28;35.95
53758;BME280;39674;59.860;30.672;2023-05-09T06:13:03;102462.50;;;12.99;34.29
53758;BME280;39674;59.860;30.672;2023-05-09T06:16:54;102531.53;;;13.77;34.10
53758;BME280;39674;59.860;30.672;2023-05-09T06:19:27;102523.00;;;13.92;32.60
53758;BME280;39674;59.860;30.672;2023-05-09T06:22:30;102519.09;;;13.54;33.47
53758;BME280;39674;59.860;30.672;2023-05-09T06:25:18;102483.47;;;13.59;33.40
53758;BME280;39674;59.860;30.672;2023-05-09T06:28:09;102453.47;;;14.05;33.03
53758;BME280;39674;59.860;30.672;2023-05-09T06:31:19;102451.81;;;14.70;32.81
53758;BME280;39674;59.860;30.672;2023-05-09T06:35:30;102441.06;;;14.73;29.85
53758;BME280;39674;59.860;30.672;2023-05-09T06:38:02;102498.72;;;15.16;30.61
53758;BME280;39674;59.860;30.672;2023-05-09T06:40:53;102442.84;;;15.16;30.75
53758;BME280;39674;59.860;30.672;2023-05-09T06:43:51;102461.03;;;15.66;31.63
53758;BME280;39674;59.860;30.672;2023-05-09T06:46:52;102546.91;;;16.70;31.17
53758;BME280;39674;59.860;30.672;2023-05-09T07:03:05;102510.16;;;17.64;28.35
53758;BME280;39674;59.860;30.672;2023-05-09T07:05:59;102546.81;;;17.96;28.00
53758;BME280;39674;59.860;30.672;2023-05-09T07:11:59;102505.69;;;17.12;28.63
53758;BME280;39674;59.860;30.672;2023-05-09T07:14:30;102509.94;;;17.34;28.61
53758;BME280;39674;59.860;30.672;2023-05-09T07:17:07;102496.03;;;17.10;27.93
53758;BME280;39674;59.860;30.672;2023-05-09T07:19:44;102457.00;;;16.90;28.15
53758;BME280;39674;59.860;30.672;2023-05-09T07:22:35;102502.84;;;17.51;27.83
53758;BME280;39674;59.860;30.672;2023-05-09T07:25:38;102511.41;;;17.57;27.53
53758;BME280;39674;59.860;30.672;2023-05-09T07:32:37;102425.41;;;16.80;28.72
53758;BME280;39674;59.860;30.672;2023-05-09T07:36:22;102530.22;;;18.23;28.00
53758;BME280;39674;59.860;30.672;2023-05-09T22:24:10;102085.47;;;6.06;58.77
53758;BME280;39674;59.860;30.672;2023-05-09T22:30:49;102087.53;;;5.69;62.18
53758;BME280;39674;59.860;30.672;2023-05-09T22:33:31;102090.13;;;5.72;60.96
53758;BME280;39674;59.860;30.672;2023-05-09T22:36:02;102071.84;;;5.66;61.17
53758;BME280;39674;59.860;30.672;2023-05-09T22:38:39;102004.00;;;5.32;61.25
53758;BME280;39674;59.860;30.672;2023-05-09T22:41:13;102029.97;;;5.59;61.07
53758;BME280;39674;59.860;30.672;2023-05-09T22:43:44;102074.38;;;5.76;63.79
53758;BME280;39674;59.860;30.672;2023-05-09T22:46:19;102021.41;;;5.39;62.36
53758;BME280;39674;59.860;30.672;2023-05-09T22:49:11;102080.53;;;5.74;63.56
53758;BME280;39674;59.860;30.672;2023-05-09T22:51:57;102035.31;;;5.49;63.91
53758;BME280;39674;59.860;30.672;2023-05-09T22:54:59;102032.72;;;5.47;61.66
53758;BME280;39674;59.860;30.672;2023-05-09T22:57:38;102043.13;;;5.52;61.63
53758;BME280;39674;59.860;30.672;2023-05-09T23:00:32;102061.25;;;5.75;60.61
53758;BME280;39674;59.860;30.672;2023-05-09T23:03:17;101926.69;;;4.89;63.01
53758;BME280;39674;59.860;30.672;2023-05-09T23:06:06;101939.94;;;4.65;63.99
53758;BME280;39674;59.860;30.672;2023-05-09T23:09:09;102019.09;;;4.98;64.39
53758;BME280;39674;59.860;30.672;2023-05-09T23:12:14;102084.47;;;5.14;66.04
53758;BME280;39674;59.860;30.672;2023-05-09T23:18:24;101953.44;;;3.91;67.82
53758;BME280;39674;59.860;30.672;2023-05-09T23:21:26;102014.34;;;4.13;66.83
53758;BME280;39674;59.860;30.672;2023-05-09T23:24:32;102036.13;;;4.17;65.94
53758;BME280;39674;59.860;30.672;2023-05-09T23:27:29;101940.41;;;3.77;66.18
53758;BME280;39674;59.860;30.672;2023-05-09T23:30:02;102036.94;;;4.34;66.60
53758;BME280;39674;59.860;30.672;2023-05-09T23:32:37;102036.00;;;4.45;65.90
53758;BME280;39674;59.860;30.672;2023-05-09T23:35:15;102035.97;;;4.51;65.45
53758;BME280;39674;59.860;30.672;2023-05-09T23:37:49;101994.25;;;4.20;66.90
53758;BME280;39674;59.860;30.672;2023-05-09T23:40:30;102079.41;;;4.83;66.91
53758;BME280;39674;59.860;30.672;2023-05-09T23:42:59;102041.19;;;4.51;65.09
53758;BME280;39674;59.860;30.672;2023-05-09T23:45:30;102030.78;;;4.39;66.48
53758;BME280;39674;59.860;30.672;2023-05-09T23:48:15;101955.13;;;3.97;65.35
53758;BME280;39674;59.860;30.672;2023-05-09T23:50:56;101998.59;;;4.27;64.13
53758;BME280;39674;59.860;30.672;2023-05-09T23:53:26;101973.41;;;4.05;67.12
53758;BME280;39674;59.860;30.672;2023-05-09T23:55:56;102056.06;;;4.41;66.73
53758;BME280;39674;59.860;30.672;2023-05-09T23:58:35;102030.91;;;4.17;67.44
